Aviation Digital Data Service (ADDS)

Output produced by METARs form (1828 UTC 19 August 2019)
found at http://www.aviationweather.gov/metar/data/
 
METAR text: RJBD 191000Z 09003KT 040V200 9999 FEW020 SCT060 BKN/// 24/23 Q1010
Conditions at: RJBD (NANKISHIRAHAMA A, JP) observed 1000 UTC 19 August 2019
Temperature: 24.0°C (75°F)
Dewpoint: 23.0°C (73°F) [RH = 94%]
Pressure (altimeter): 29.82 inches Hg (1010.0 mb)
Winds: from the E (90 degrees) at 3 MPH (3 knots; 1.5 m/s)
Visibility: 6 or more miles (10+ km)
Ceiling: at least 12,000 feet AGL
Clouds: few clouds at 2000 feet AGL
scattered clouds at 6000 feet AGL
Weather: no significant weather observed at this time

METAR text: RJBD 190900Z VRB04KT 9999 VCSH FEW008 SCT020 FEW030CB BKN/// 24/23 Q1009
Conditions at: RJBD (NANKISHIRAHAMA A, JP) observed 0900 UTC 19 August 2019
Temperature: 24.0°C (75°F)
Dewpoint: 23.0°C (73°F) [RH = 94%]
Pressure (altimeter): 29.79 inches Hg (1009.0 mb)
Winds: variable direction winds at 5 MPH (4 knots; 2.1 m/s)
Visibility: 6 or more miles (10+ km)
Ceiling: at least 12,000 feet AGL
Clouds: few clouds at 800 feet AGL
scattered clouds at 2000 feet AGL
few clouds at 3000 feet AGL
Weather: VCSH  (showers in vicinity)

METAR text: RJBD 190833Z 11011KT 9999 VCSH FEW008 SCT020 FEW030CB BKN070 24/23 Q1009 RMK 1ST008 3CU020 1CB030 6AC070 A2981 CB 25KM SE MOV NE P/FR
Conditions at: RJBD (NANKISHIRAHAMA A, JP) observed 0833 UTC 19 August 2019
Temperature: 24.0°C (75°F)
Dewpoint: 23.0°C (73°F) [RH = 94%]
Pressure (altimeter): 29.79 inches Hg (1009.0 mb)
Winds: from the ESE (110 degrees) at 13 MPH (11 knots; 5.7 m/s)
Visibility: 6 or more miles (10+ km)
Ceiling: 7000 feet AGL
Clouds: few clouds at 800 feet AGL
scattered clouds at 2000 feet AGL
few clouds at 3000 feet AGL
broken clouds at 7000 feet AGL
Weather: VCSH  (showers in vicinity)

METAR text: RJBD 190800Z 03005KT 4000 -TSRA BR FEW003 FEW020CB SCT030 BKN035 24/24 Q1010
Conditions at: RJBD (NANKISHIRAHAMA A, JP) observed 0800 UTC 19 August 2019
Temperature: 24.0°C (75°F)
Dewpoint: 24.0°C (75°F) [RH = 100%]
Pressure (altimeter): 29.82 inches Hg (1010.0 mb)
Winds: from the NNE (30 degrees) at 6 MPH (5 knots; 2.6 m/s)
Visibility: 2.49 miles (4.01 km)
Ceiling: 3500 feet AGL
Clouds: few clouds at 300 feet AGL
few clouds at 2000 feet AGL
scattered clouds at 3000 feet AGL
broken clouds at 3500 feet AGL
Weather: -TSRA BR  (light rain associated with thunderstorm(s), mist)

METAR text: RJBD 190700Z 14011KT 2000 +TSRA BR FEW001 SCT003 SCT020CB BKN035 24/23 Q1011
Conditions at: RJBD (NANKISHIRAHAMA A, JP) observed 0700 UTC 19 August 2019
Temperature: 24.0°C (75°F)
Dewpoint: 23.0°C (73°F) [RH = 94%]
Pressure (altimeter): 29.85 inches Hg (1011.0 mb)
Winds: from the SE (140 degrees) at 13 MPH (11 knots; 5.7 m/s)
Visibility: 1.24 miles (2.00 km)
Ceiling: 3500 feet AGL
Clouds: few clouds at 100 feet AGL
scattered clouds at 300 feet AGL
scattered clouds at 2000 feet AGL
broken clouds at 3500 feet AGL
Weather: +TSRA BR  (heavy rain associated with thunderstorm(s), mist)

METAR text: RJBD 190600Z 15005KT 100V190 2500 TSRA BR FEW008 FEW020CB SCT035 BKN060 26/25 Q1009
Conditions at: RJBD (NANKISHIRAHAMA A, JP) observed 0600 UTC 19 August 2019
Temperature: 26.0°C (79°F)
Dewpoint: 25.0°C (77°F) [RH = 94%]
Pressure (altimeter): 29.79 inches Hg (1009.0 mb)
Winds: from the SSE (150 degrees) at 6 MPH (5 knots; 2.6 m/s)
Visibility: 1.55 miles (2.49 km)
Ceiling: 6000 feet AGL
Clouds: few clouds at 800 feet AGL
few clouds at 2000 feet AGL
scattered clouds at 3500 feet AGL
broken clouds at 6000 feet AGL
Weather: TSRA BR  (rain associated with thunderstorm(s), mist)

METAR text: RJBD 190500Z 18006KT 9999 -TSRA FEW020 FEW030CB SCT040 BKN060 28/25 Q1010
Conditions at: RJBD (NANKISHIRAHAMA A, JP) observed 0500 UTC 19 August 2019
Temperature: 28.0°C (82°F)
Dewpoint: 25.0°C (77°F) [RH = 84%]
Pressure (altimeter): 29.82 inches Hg (1010.0 mb)
Winds: from the S (180 degrees) at 7 MPH (6 knots; 3.1 m/s)
Visibility: 6 or more miles (10+ km)
Ceiling: 6000 feet AGL
Clouds: few clouds at 2000 feet AGL
few clouds at 3000 feet AGL
scattered clouds at 4000 feet AGL
broken clouds at 6000 feet AGL
Weather: -TSRA  (light rain associated with thunderstorm(s))

METAR text: RJBD 190400Z 03003KT 360V060 9999 VCSH FEW020 SCT120 BKN140 29/26 Q1009
Conditions at: RJBD (NANKISHIRAHAMA A, JP) observed 0400 UTC 19 August 2019
Temperature: 29.0°C (84°F)
Dewpoint: 26.0°C (79°F) [RH = 84%]
Pressure (altimeter): 29.79 inches Hg (1009.0 mb)
Winds: from the NNE (30 degrees) at 3 MPH (3 knots; 1.5 m/s)
Visibility: 6 or more miles (10+ km)
Ceiling: 14000 feet AGL
Clouds: few clouds at 2000 feet AGL
scattered clouds at 12000 feet AGL
broken clouds at 14000 feet AGL
Weather: VCSH  (showers in vicinity)

METAR text: RJBD 190300Z 17007KT 9999 -SHRA FEW020 SCT030 BKN060 29/26 Q1010
Conditions at: RJBD (NANKISHIRAHAMA A, JP) observed 0300 UTC 19 August 2019
Temperature: 29.0°C (84°F)
Dewpoint: 26.0°C (79°F) [RH = 84%]
Pressure (altimeter): 29.82 inches Hg (1010.0 mb)
Winds: from the S (170 degrees) at 8 MPH (7 knots; 3.6 m/s)
Visibility: 6 or more miles (10+ km)
Ceiling: 6000 feet AGL
Clouds: few clouds at 2000 feet AGL
scattered clouds at 3000 feet AGL
broken clouds at 6000 feet AGL
Weather: -SHRA  (light rain showers)

METAR text: RJBD 190200Z 17007KT 9999 -SHRA FEW025 SCT050 BKN130 29/26 Q1010
Conditions at: RJBD (NANKISHIRAHAMA A, JP) observed 0200 UTC 19 August 2019
Temperature: 29.0°C (84°F)
Dewpoint: 26.0°C (79°F) [RH = 84%]
Pressure (altimeter): 29.82 inches Hg (1010.0 mb)
Winds: from the S (170 degrees) at 8 MPH (7 knots; 3.6 m/s)
Visibility: 6 or more miles (10+ km)
Ceiling: 13000 feet AGL
Clouds: few clouds at 2500 feet AGL
scattered clouds at 5000 feet AGL
broken clouds at 13000 feet AGL
Weather: -SHRA  (light rain showers)

METAR text: RJBD 190100Z 16006KT 140V200 9999 FEW030 BKN150 30/26 Q1010
Conditions at: RJBD (NANKISHIRAHAMA A, JP) observed 0100 UTC 19 August 2019
Temperature: 30.0°C (86°F)
Dewpoint: 26.0°C (79°F) [RH = 79%]
Pressure (altimeter): 29.82 inches Hg (1010.0 mb)
Winds: from the SSE (160 degrees) at 7 MPH (6 knots; 3.1 m/s)
Visibility: 6 or more miles (10+ km)
Ceiling: 15000 feet AGL
Clouds: few clouds at 3000 feet AGL
broken clouds at 15000 feet AGL
Weather: no significant weather observed at this time

METAR text: RJBD 190000Z 16005KT 060V210 9999 FEW035 BKN160 30/25 Q1010
Conditions at: RJBD (NANKISHIRAHAMA A, JP) observed 0000 UTC 19 August 2019
Temperature: 30.0°C (86°F)
Dewpoint: 25.0°C (77°F) [RH = 75%]
Pressure (altimeter): 29.82 inches Hg (1010.0 mb)
Winds: from the SSE (160 degrees) at 6 MPH (5 knots; 2.6 m/s)
Visibility: 6 or more miles (10+ km)
Ceiling: 16000 feet AGL
Clouds: few clouds at 3500 feet AGL
broken clouds at 16000 feet AGL
Weather: no significant weather observed at this time

METAR text: RJBD 182300Z 08003KT 030V130 9999 FEW030 SCT150 29/25 Q1010
Conditions at: RJBD (NANKISHIRAHAMA A, JP) observed 2300 UTC 18 August 2019
Temperature: 29.0°C (84°F)
Dewpoint: 25.0°C (77°F) [RH = 79%]
Pressure (altimeter): 29.82 inches Hg (1010.0 mb)
Winds: from the E (80 degrees) at 3 MPH (3 knots; 1.5 m/s)
Visibility: 6 or more miles (10+ km)
Ceiling: at least 12,000 feet AGL
Clouds: few clouds at 3000 feet AGL
scattered clouds at 15000 feet AGL
Weather: no significant weather observed at this time

METAR text: RJBD 181000Z 14006KT 9999 FEW030 BKN/// 27/24 Q1007
Conditions at: RJBD (NANKISHIRAHAMA A, JP) observed 1000 UTC 18 August 2019
Temperature: 27.0°C (81°F)
Dewpoint: 24.0°C (75°F) [RH = 84%]
Pressure (altimeter): 29.73 inches Hg (1007.0 mb)
Winds: from the SE (140 degrees) at 7 MPH (6 knots; 3.1 m/s)
Visibility: 6 or more miles (10+ km)
Ceiling: at least 12,000 feet AGL
Clouds: few clouds at 3000 feet AGL
Weather: no significant weather observed at this time

METAR text: RJBD 180900Z 16008KT 9999 FEW030 BKN/// 27/24 Q1007
Conditions at: RJBD (NANKISHIRAHAMA A, JP) observed 0900 UTC 18 August 2019
Temperature: 27.0°C (81°F)
Dewpoint: 24.0°C (75°F) [RH = 84%]
Pressure (altimeter): 29.73 inches Hg (1007.0 mb)
Winds: from the SSE (160 degrees) at 9 MPH (8 knots; 4.1 m/s)
Visibility: 6 or more miles (10+ km)
Ceiling: at least 12,000 feet AGL
Clouds: few clouds at 3000 feet AGL
Weather: no significant weather observed at this time

METAR text: RJBD 180800Z 15007KT 120V190 9999 FEW030 SCT/// 28/24 Q1007
Conditions at: RJBD (NANKISHIRAHAMA A, JP) observed 0800 UTC 18 August 2019
Temperature: 28.0°C (82°F)
Dewpoint: 24.0°C (75°F) [RH = 79%]
Pressure (altimeter): 29.73 inches Hg (1007.0 mb)
Winds: from the SSE (150 degrees) at 8 MPH (7 knots; 3.6 m/s)
Visibility: 6 or more miles (10+ km)
Ceiling: at least 12,000 feet AGL
Clouds: few clouds at 3000 feet AGL
Weather: no significant weather observed at this time

METAR text: RJBD 180700Z 18007KT 140V220 9999 FEW030 SCT/// 29/24 Q1007
Conditions at: RJBD (NANKISHIRAHAMA A, JP) observed 0700 UTC 18 August 2019
Temperature: 29.0°C (84°F)
Dewpoint: 24.0°C (75°F) [RH = 74%]
Pressure (altimeter): 29.73 inches Hg (1007.0 mb)
Winds: from the S (180 degrees) at 8 MPH (7 knots; 3.6 m/s)
Visibility: 6 or more miles (10+ km)
Ceiling: at least 12,000 feet AGL
Clouds: few clouds at 3000 feet AGL
Weather: no significant weather observed at this time